createdAt,value
2023-03-29T05:01:16.119Z,25.00
2023-03-29T05:02:16.175Z,25.00
2023-03-29T05:03:16.215Z,25.00
2023-03-29T05:04:16.309Z,25.00
2023-03-29T05:05:16.257Z,25.00
2023-03-29T05:06:16.285Z,25.00
2023-03-29T05:07:16.275Z,0.00
2023-03-29T05:08:16.338Z,0.00
2023-03-29T05:09:16.361Z,0.00
2023-03-29T05:10:16.449Z,0.00
2023-03-29T05:11:16.494Z,0.00
2023-03-29T05:12:16.579Z,0.00
2023-03-29T05:13:16.598Z,0.00
2023-03-29T05:14:16.645Z,0.00
2023-03-29T05:15:16.672Z,0.00
2023-03-29T05:16:16.736Z,0.00
2023-03-29T05:17:16.752Z,0.00
2023-03-29T05:18:16.767Z,0.00
2023-03-29T05:19:16.864Z,0.00
2023-03-29T05:20:16.831Z,0.00
2023-03-29T05:21:16.897Z,0.00
2023-03-29T05:22:16.941Z,0.00
2023-03-29T05:23:16.956Z,4.29
2023-03-29T05:24:16.988Z,25.00
2023-03-29T05:25:17.029Z,26.92
2023-03-29T05:26:17.020Z,25.07
2023-03-29T05:27:17.123Z,25.00
2023-03-29T05:28:17.070Z,25.00
2023-03-29T05:29:17.111Z,25.89
2023-03-29T05:30:17.127Z,24.96
2023-03-29T05:31:17.342Z,26.32
2023-03-29T05:32:17.169Z,25.47
2023-03-29T05:33:17.186Z,31.03
2023-03-29T05:34:17.222Z,28.83
2023-03-29T05:35:17.217Z,27.20
2023-03-29T05:36:17.301Z,25.75
2023-03-29T05:37:17.254Z,29.38
2023-03-29T05:38:17.294Z,26.28
2023-03-29T05:39:17.366Z,25.00
2023-03-29T05:40:17.372Z,25.20
2023-03-29T05:41:17.331Z,25.12
2023-03-29T05:42:17.380Z,25.00
2023-03-29T05:43:17.371Z,25.88
2023-03-29T05:44:17.419Z,25.00
2023-03-29T05:45:17.428Z,29.00
2023-03-29T05:46:17.572Z,29.18
2023-03-29T05:47:17.544Z,31.82
2023-03-29T05:48:17.510Z,30.00
2023-03-29T05:49:17.531Z,27.13
2023-03-29T05:50:17.599Z,29.66
2023-03-29T05:51:17.628Z,31.60
2023-03-29T05:52:17.609Z,32.42
2023-03-29T05:53:17.682Z,25.35
2023-03-29T05:54:17.722Z,29.92
2023-03-29T05:55:17.764Z,27.71
2023-03-29T05:56:17.823Z,28.75
2023-03-29T05:57:17.811Z,25.62
2023-03-29T05:58:17.892Z,28.90
2023-03-29T05:59:17.942Z,26.72
2023-03-29T06:00:17.900Z,26.97
2023-03-29T06:01:18.095Z,27.25
2023-03-29T06:02:18.005Z,32.25
2023-03-29T06:04:18.229Z,32.63
2023-03-29T06:05:18.025Z,35.42
2023-03-29T06:06:18.041Z,38.30
2023-03-29T06:07:18.750Z,38.82
2023-03-29T06:08:18.008Z,42.02
2023-03-29T06:09:18.059Z,40.76
2023-03-29T06:10:18.054Z,44.92
2023-03-29T06:11:18.036Z,44.52
2023-03-29T06:12:18.048Z,45.71
2023-03-29T06:13:18.063Z,50.34
2023-03-29T06:14:18.118Z,49.14
2023-03-29T06:15:18.172Z,54.72
2023-03-29T06:16:18.253Z,54.33
2023-03-29T06:17:18.310Z,50.95
2023-03-29T06:18:18.314Z,54.10
2023-03-29T06:19:18.376Z,55.99
2023-03-29T06:20:18.451Z,56.37
2023-03-29T06:21:18.491Z,66.65
2023-03-29T06:22:18.555Z,66.00
2023-03-29T06:23:18.620Z,64.10
2023-03-29T06:24:18.645Z,65.90
2023-03-29T06:25:18.725Z,65.16
2023-03-29T06:26:18.773Z,63.65
2023-03-29T06:27:18.855Z,75.07
2023-03-29T06:28:18.869Z,67.27
2023-03-29T06:29:18.940Z,64.83
2023-03-29T06:30:18.958Z,73.49
2023-03-29T06:31:19.025Z,71.60
2023-03-29T06:32:19.020Z,71.62
2023-03-29T06:33:19.101Z,74.93
2023-03-29T06:34:19.129Z,78.81
2023-03-29T06:35:19.174Z,76.47
2023-03-29T06:36:19.228Z,86.72
2023-03-29T06:37:19.231Z,81.29
2023-03-29T06:38:19.274Z,78.83
2023-03-29T06:39:19.314Z,80.36
2023-03-29T06:40:19.389Z,83.02
2023-03-29T06:41:19.418Z,82.45
2023-03-29T06:42:21.579Z,84.39
2023-03-29T06:43:19.447Z,87.45
2023-03-29T06:44:19.514Z,86.49
2023-03-29T06:45:21.248Z,80.73
2023-03-29T06:46:19.541Z,90.03
2023-03-29T06:47:19.500Z,82.33
2023-03-29T06:48:19.520Z,83.10
2023-03-29T06:49:19.523Z,80.31
2023-03-29T06:50:19.484Z,82.19
2023-03-29T06:51:21.179Z,88.94
2023-03-29T06:52:19.589Z,89.13
2023-03-29T06:53:19.459Z,89.14
2023-03-29T06:54:19.465Z,90.49
2023-03-29T06:55:19.455Z,90.51
2023-03-29T06:56:19.416Z,87.96
2023-03-29T06:57:19.499Z,83.04
2023-03-29T06:58:21.602Z,89.20
2023-03-29T06:59:23.446Z,89.43
2023-03-29T07:00:19.427Z,89.73
2023-03-29T07:01:19.450Z,89.21
2023-03-29T07:02:35.152Z,89.83
2023-03-29T07:03:24.387Z,90.15
2023-03-29T07:04:19.433Z,90.09
2023-03-29T07:05:19.392Z,91.53
2023-03-29T07:06:19.800Z,92.34
2023-03-29T07:07:19.337Z,92.66
2023-03-29T07:08:19.393Z,89.18
2023-03-29T07:09:19.558Z,93.16
2023-03-29T07:10:19.343Z,86.66
2023-03-29T07:11:19.340Z,91.54
2023-03-29T07:12:19.348Z,84.33
2023-03-29T07:13:19.334Z,85.38
2023-03-29T07:14:19.321Z,91.66
2023-03-29T07:15:19.300Z,77.21
2023-03-29T07:16:19.418Z,83.62
2023-03-29T07:17:19.305Z,82.92
2023-03-29T07:18:19.294Z,77.01
2023-03-29T07:19:19.293Z,72.96
2023-03-29T07:20:19.278Z,72.65
2023-03-29T07:21:19.305Z,79.62
2023-03-29T07:22:19.299Z,73.76
2023-03-29T07:23:19.359Z,81.30
2023-03-29T07:24:19.304Z,71.09
2023-03-29T07:25:19.348Z,70.75
2023-03-29T07:26:28.837Z,72.56
2023-03-29T07:27:20.328Z,72.69
2023-03-29T07:28:19.377Z,69.41
2023-03-29T07:29:19.355Z,68.35
2023-03-29T07:30:19.371Z,63.04
2023-03-29T07:31:19.316Z,65.77
2023-03-29T07:32:19.311Z,59.61
2023-03-29T07:33:19.409Z,60.15
2023-03-29T07:34:19.347Z,70.02
2023-03-29T07:35:19.294Z,64.18
2023-03-29T07:36:19.377Z,63.40
2023-03-29T07:37:19.287Z,66.99
2023-03-29T07:38:19.287Z,56.03
2023-03-29T07:39:19.336Z,58.64
2023-03-29T07:40:19.250Z,57.04
2023-03-29T07:41:19.282Z,59.56
2023-03-29T07:42:19.264Z,58.42
2023-03-29T07:43:19.255Z,70.62
2023-03-29T07:44:19.201Z,62.66
2023-03-29T07:45:19.226Z,60.09
2023-03-29T07:46:20.271Z,65.92
2023-03-29T07:47:19.215Z,72.79
2023-03-29T07:48:19.240Z,112.24
2023-03-29T07:49:20.992Z,114.25
2023-03-29T07:50:19.161Z,164.08
2023-03-29T07:51:19.217Z,137.62
2023-03-29T07:52:19.206Z,157.87
2023-03-29T07:53:19.152Z,173.43
2023-03-29T07:54:19.148Z,174.28
2023-03-29T07:55:19.147Z,180.98
2023-03-29T07:56:19.133Z,196.09
2023-03-29T07:57:19.212Z,195.65
2023-03-29T07:58:19.117Z,194.14
2023-03-29T07:59:19.105Z,199.16
2023-03-29T08:00:19.155Z,200.87
2023-03-29T08:01:19.830Z,195.12
2023-03-29T08:02:19.166Z,191.46
2023-03-29T08:03:22.321Z,193.78
2023-03-29T08:04:19.221Z,193.83
2023-03-29T08:05:29.139Z,193.99
2023-03-29T08:06:25.182Z,194.15
2023-03-29T08:07:19.289Z,193.81
2023-03-29T08:08:19.065Z,161.65
2023-03-29T08:09:19.084Z,154.18
2023-03-29T08:10:19.049Z,144.39
2023-03-29T08:11:19.016Z,134.37
2023-03-29T08:12:19.047Z,127.96
2023-03-29T08:13:19.035Z,121.25
2023-03-29T08:14:19.029Z,120.81
2023-03-29T08:15:19.064Z,129.03
2023-03-29T08:16:19.027Z,132.49
2023-03-29T08:17:19.016Z,124.74
2023-03-29T08:18:19.020Z,119.85
2023-03-29T08:19:18.990Z,125.50
2023-03-29T08:20:18.980Z,132.27
2023-03-29T08:21:18.957Z,130.86
2023-03-29T08:22:18.969Z,114.86
2023-03-29T08:23:18.972Z,109.16
2023-03-29T08:24:20.891Z,102.94
2023-03-29T08:25:18.931Z,100.98
2023-03-29T08:26:18.900Z,92.16
2023-03-29T08:27:18.900Z,104.01
2023-03-29T08:28:18.891Z,98.15
2023-03-29T08:29:18.883Z,91.35
2023-03-29T08:30:18.892Z,92.45
2023-03-29T08:31:19.000Z,96.64
2023-03-29T08:32:19.001Z,109.57
2023-03-29T08:33:19.087Z,118.54
2023-03-29T08:34:19.069Z,115.73
2023-03-29T08:35:19.115Z,107.93
2023-03-29T08:36:19.205Z,105.35
2023-03-29T08:37:19.162Z,101.03
2023-03-29T08:38:19.223Z,103.38
2023-03-29T08:39:19.690Z,106.23
2023-03-29T08:40:19.287Z,96.51
2023-03-29T08:41:19.274Z,88.87
2023-03-29T08:42:19.317Z,82.51
2023-03-29T08:43:19.369Z,74.55
2023-03-29T08:44:19.390Z,68.59
2023-03-29T08:45:19.488Z,69.54
2023-03-29T08:46:19.491Z,84.55
2023-03-29T08:47:19.531Z,75.92
2023-03-29T08:48:19.566Z,65.98
2023-03-29T08:49:19.614Z,68.88
2023-03-29T08:50:19.591Z,73.72
2023-03-29T08:51:19.663Z,73.23
2023-03-29T08:52:19.674Z,93.71
2023-03-29T08:53:19.709Z,82.35
2023-03-29T08:54:19.755Z,77.46
2023-03-29T08:55:19.758Z,90.90
2023-03-29T08:56:19.780Z,90.11
2023-03-29T08:57:19.836Z,91.49
2023-03-29T08:58:19.788Z,91.02
2023-03-29T08:59:19.833Z,96.68
2023-03-29T09:00:20.393Z,97.11
2023-03-29T09:01:19.868Z,96.42
2023-03-29T09:02:19.936Z,96.82
2023-03-29T09:03:19.959Z,95.72
2023-03-29T09:04:19.883Z,105.45
2023-03-29T09:05:19.884Z,109.24
2023-03-29T09:06:19.883Z,115.11
2023-03-29T09:07:19.890Z,117.69
2023-03-29T09:08:19.881Z,115.73
2023-03-29T09:09:19.903Z,113.55
2023-03-29T09:10:19.883Z,113.07
2023-03-29T09:11:19.888Z,113.50
2023-03-29T09:12:19.929Z,114.78
2023-03-29T09:13:19.940Z,118.25
2023-03-29T09:14:19.894Z,116.80
2023-03-29T09:15:19.930Z,107.84
2023-03-29T09:16:19.953Z,99.32
2023-03-29T09:17:19.897Z,85.31
2023-03-29T09:18:19.999Z,99.31
2023-03-29T09:19:20.031Z,96.72
2023-03-29T09:20:19.960Z,105.09
2023-03-29T09:21:19.987Z,104.02
2023-03-29T09:22:19.988Z,110.62
2023-03-29T09:23:19.975Z,116.33
2023-03-29T09:24:20.029Z,113.06
2023-03-29T09:25:20.281Z,112.60
2023-03-29T09:26:20.014Z,105.82
2023-03-29T09:27:20.028Z,107.61
2023-03-29T09:28:20.039Z,111.33
2023-03-29T09:29:19.987Z,99.89
2023-03-29T09:30:19.994Z,104.00
2023-03-29T09:31:20.020Z,104.36
2023-03-29T09:32:20.029Z,110.44
2023-03-29T09:33:20.237Z,112.80
2023-03-29T09:34:20.296Z,114.10
2023-03-29T09:35:20.119Z,114.41
2023-03-29T09:36:20.625Z,112.91
2023-03-29T09:37:20.054Z,117.37
2023-03-29T09:38:20.024Z,125.09
2023-03-29T09:39:20.034Z,114.32
2023-03-29T09:40:20.067Z,154.33
2023-03-29T09:41:20.122Z,153.34
2023-03-29T09:42:20.051Z,138.73
2023-03-29T09:43:20.040Z,142.93
2023-03-29T09:44:30.107Z,147.25
2023-03-29T09:45:21.049Z,139.11
2023-03-29T09:46:20.090Z,148.68
2023-03-29T09:47:20.058Z,149.37
2023-03-29T09:48:20.023Z,152.34
2023-03-29T09:49:20.028Z,153.33
2023-03-29T09:50:30.930Z,152.20
2023-03-29T09:51:21.043Z,152.40
2023-03-29T09:52:20.025Z,143.33
2023-03-29T09:53:20.001Z,151.88
2023-03-29T09:54:20.018Z,148.47
2023-03-29T09:55:20.010Z,155.18
2023-03-29T09:56:20.001Z,155.17
2023-03-29T09:57:20.036Z,149.17
2023-03-29T09:58:19.988Z,150.08
2023-03-29T09:59:19.981Z,153.34
2023-03-29T10:00:20.074Z,153.49
2023-03-29T10:01:20.139Z,157.78
2023-03-29T10:02:20.128Z,162.84
2023-03-29T10:03:20.216Z,161.26
2023-03-29T10:04:20.288Z,161.78
2023-03-29T10:05:20.292Z,156.56
2023-03-29T10:06:20.330Z,156.38
2023-03-29T10:07:20.415Z,155.88
2023-03-29T10:08:20.460Z,157.72
2023-03-29T10:09:20.467Z,160.36
2023-03-29T10:10:20.556Z,157.57
2023-03-29T10:11:20.596Z,159.89
2023-03-29T10:12:20.620Z,160.24
2023-03-29T10:13:20.734Z,158.42
2023-03-29T10:14:20.717Z,155.58
2023-03-29T10:15:29.196Z,155.74
2023-03-29T10:16:21.798Z,155.89
2023-03-29T10:17:20.751Z,155.91
2023-03-29T10:18:20.749Z,156.13
2023-03-29T10:19:20.750Z,152.99
2023-03-29T10:20:20.736Z,158.03
2023-03-29T10:21:20.705Z,156.74
2023-03-29T10:22:20.714Z,155.64
2023-03-29T10:23:20.690Z,154.08
2023-03-29T10:24:20.687Z,155.00
2023-03-29T10:25:20.662Z,155.88
2023-03-29T10:26:20.671Z,152.45
2023-03-29T10:27:20.708Z,146.64
2023-03-29T10:28:20.722Z,151.37
2023-03-29T10:29:20.786Z,147.97
2023-03-29T10:30:20.824Z,140.42
2023-03-29T10:31:20.883Z,143.39
2023-03-29T10:33:21.036Z,141.52
2023-03-29T10:34:21.105Z,142.61
2023-03-29T10:35:21.175Z,135.38
2023-03-29T10:36:21.199Z,147.95
2023-03-29T10:37:21.340Z,138.31
2023-03-29T10:38:21.337Z,137.47
2023-03-29T10:39:21.332Z,140.87
2023-03-29T10:40:21.346Z,135.39
2023-03-29T10:41:21.383Z,135.34
2023-03-29T10:42:21.384Z,142.11
2023-03-29T10:43:21.437Z,133.95
2023-03-29T10:44:21.441Z,135.11
2023-03-29T10:45:21.463Z,118.65
2023-03-29T10:46:21.510Z,116.67
2023-03-29T10:47:21.462Z,115.93
2023-03-29T10:48:21.496Z,111.01
2023-03-29T10:49:21.501Z,116.99
2023-03-29T10:50:21.488Z,119.75
2023-03-29T10:51:21.472Z,117.34
2023-03-29T10:52:21.507Z,112.12
2023-03-29T10:53:21.499Z,133.24
2023-03-29T10:54:21.521Z,143.88
2023-03-29T10:55:21.515Z,127.47
2023-03-29T10:56:21.523Z,129.09
2023-03-29T10:57:22.894Z,126.52
2023-03-29T10:58:21.515Z,136.39
2023-03-29T10:59:21.500Z,126.57
2023-03-29T11:00:21.515Z,131.06
2023-03-29T11:01:21.620Z,126.31
2023-03-29T11:02:21.571Z,131.48
2023-03-29T11:03:21.878Z,125.34
2023-03-29T11:04:21.569Z,136.90
2023-03-29T11:05:21.562Z,139.73
2023-03-29T11:06:21.544Z,130.34
2023-03-29T11:07:21.543Z,126.46
2023-03-29T11:08:21.809Z,107.61
2023-03-29T11:09:21.577Z,94.78
2023-03-29T11:10:21.588Z,87.54
2023-03-29T11:11:21.580Z,69.19
2023-03-29T11:12:21.592Z,62.50
2023-03-29T11:13:21.558Z,77.59
2023-03-29T11:14:21.555Z,75.51
2023-03-29T11:15:21.602Z,71.08
2023-03-29T11:16:21.706Z,70.54
2023-03-29T11:17:21.713Z,69.66
2023-03-29T11:18:21.664Z,56.29
2023-03-29T11:19:21.612Z,43.61
2023-03-29T11:20:22.442Z,46.99
2023-03-29T11:21:21.638Z,45.38
2023-03-29T11:22:21.626Z,51.34
2023-03-29T11:23:21.647Z,39.22
2023-03-29T11:24:21.618Z,49.59
2023-03-29T11:25:21.637Z,33.83
2023-03-29T11:26:21.661Z,46.81
2023-03-29T11:27:21.622Z,56.66
2023-03-29T11:28:21.663Z,52.68
2023-03-29T11:29:21.653Z,48.24
2023-03-29T11:30:21.634Z,58.99
2023-03-29T11:31:21.660Z,72.37
2023-03-29T11:32:21.677Z,70.62
2023-03-29T11:33:21.683Z,68.01
2023-03-29T11:34:21.674Z,74.87
2023-03-29T11:35:21.654Z,68.05
2023-03-29T11:36:21.677Z,69.53
2023-03-29T11:37:21.642Z,70.18
2023-03-29T11:38:21.665Z,73.30
2023-03-29T11:39:21.689Z,72.65
2023-03-29T11:40:21.691Z,76.50
2023-03-29T11:41:21.662Z,83.38
2023-03-29T11:42:21.681Z,76.10
2023-03-29T11:43:21.658Z,77.40
2023-03-29T11:44:21.685Z,78.18
2023-03-29T11:45:21.691Z,83.43
2023-03-29T11:46:21.755Z,74.18
2023-03-29T11:47:21.699Z,85.67
2023-03-29T11:48:21.671Z,83.15
2023-03-29T11:49:21.680Z,82.95
2023-03-29T11:50:21.750Z,77.46
2023-03-29T11:51:21.742Z,84.30
2023-03-29T11:52:21.718Z,84.60
2023-03-29T11:53:21.751Z,87.34
2023-03-29T11:54:21.714Z,81.36
2023-03-29T11:55:21.751Z,88.03
2023-03-29T11:56:21.736Z,78.05
2023-03-29T11:57:21.816Z,83.37
2023-03-29T11:58:21.761Z,75.16
2023-03-29T11:59:21.737Z,80.16
2023-03-29T12:00:21.744Z,86.94
2023-03-29T12:01:21.749Z,80.29
2023-03-29T12:02:21.864Z,84.19
2023-03-29T12:03:21.943Z,83.15
2023-03-29T12:04:21.829Z,86.34
2023-03-29T12:05:21.751Z,80.97
2023-03-29T12:06:21.779Z,77.20
2023-03-29T12:07:21.777Z,61.06
2023-03-29T12:08:21.803Z,63.25
2023-03-29T12:09:21.804Z,62.01
2023-03-29T12:10:21.791Z,56.88
2023-03-29T12:11:21.796Z,31.88
2023-03-29T12:12:21.852Z,39.04
2023-03-29T12:13:21.895Z,44.24
2023-03-29T12:14:21.909Z,45.72
2023-03-29T12:15:21.878Z,37.85
2023-03-29T12:16:21.979Z,33.30
2023-03-29T12:17:21.889Z,32.92
2023-03-29T12:18:21.862Z,27.66
2023-03-29T12:19:21.906Z,37.17
2023-03-29T12:20:21.872Z,28.19
2023-03-29T12:21:21.933Z,26.87
2023-03-29T12:22:21.890Z,37.81
2023-03-29T12:23:21.948Z,34.14
2023-03-29T12:24:22.001Z,21.03
2023-03-29T12:25:23.322Z,32.50
2023-03-29T12:26:21.974Z,20.07
2023-03-29T12:27:22.017Z,15.35
2023-03-29T12:28:22.321Z,33.88
2023-03-29T12:29:22.298Z,61.46
2023-03-29T12:30:22.257Z,51.33
2023-03-29T12:31:22.271Z,57.55
2023-03-29T12:32:22.323Z,63.80
2023-03-29T12:33:22.332Z,72.89
2023-03-29T12:34:22.413Z,78.65
2023-03-29T12:35:22.641Z,77.72
2023-03-29T12:36:22.544Z,88.10
2023-03-29T12:37:22.736Z,65.91
2023-03-29T12:38:22.595Z,38.21
2023-03-29T12:39:22.625Z,60.20
2023-03-29T12:40:22.679Z,30.08
2023-03-29T12:41:22.688Z,39.69
2023-03-29T12:42:22.761Z,32.28
2023-03-29T12:43:22.774Z,31.27
2023-03-29T12:44:22.879Z,28.15
2023-03-29T12:45:22.926Z,50.99
2023-03-29T12:46:23.048Z,22.68
2023-03-29T12:47:22.994Z,25.00
2023-03-29T12:48:23.040Z,38.22
2023-03-29T12:49:23.047Z,25.88
2023-03-29T12:50:23.099Z,25.58
2023-03-29T12:51:23.068Z,55.35
2023-03-29T12:52:23.125Z,51.02
2023-03-29T12:53:23.233Z,56.21
2023-03-29T12:54:23.725Z,73.02
2023-03-29T12:55:23.102Z,60.55
2023-03-29T12:56:23.122Z,69.07
2023-03-29T12:57:23.283Z,80.68
2023-03-29T12:58:23.221Z,91.05
2023-03-29T12:59:23.248Z,91.19
2023-03-29T13:00:23.204Z,73.47
2023-03-29T13:01:23.460Z,86.09
2023-03-29T13:02:23.421Z,98.31
2023-03-29T13:03:23.382Z,89.41
2023-03-29T13:04:23.469Z,76.79
2023-03-29T13:05:23.364Z,97.06
2023-03-29T13:06:23.474Z,87.32
2023-03-29T13:07:23.408Z,105.97
2023-03-29T13:08:23.409Z,89.70
2023-03-29T13:09:23.417Z,105.13
